Time;durP1;ratioP1;P1;durP2;ratioP2;P2;SDS_P1;SDS_P2;PMS_P1;PMS_P2;Temp;Humidity;BMP_temperature;BMP_pressure;BME280_temperature;BME280_humidity;BME280_pressure;Samples;Min_cycle;Max_cycle;Signal;HPM_P1;HPM_P2
2021/01/30 00:02:14;;;;;;;4.60;4.20;;;7.10;99.90;;;;;;5018614;28;20211;-71
2021/01/30 00:04:39;;;;;;;4.73;4.23;;;7.00;99.90;;;;;;5008742;28;20338;-72
2021/01/30 00:07:06;;;;;;;4.90;4.07;;;6.90;99.90;;;;;;4996850;28;20218;-72
2021/01/30 00:09:32;;;;;;;4.20;3.60;;;6.90;99.90;;;;;;4996281;28;20201;-73
2021/01/30 00:12:00;;;;;;;5.47;4.90;;;6.80;99.90;;;;;;4996298;28;20900;-72
2021/01/30 00:14:34;;;;;;;4.80;4.30;;;6.80;99.90;;;;;;4996641;28;20412;-72
2021/01/30 00:17:01;;;;;;;6.17;4.40;;;6.70;99.90;;;;;;4997062;28;20414;-71
2021/01/30 00:19:29;;;;;;;7.90;4.77;;;6.80;99.90;;;;;;4995041;28;20497;-71
2021/01/30 00:21:57;;;;;;;7.30;5.67;;;6.80;99.90;;;;;;5001628;28;20907;-73
2021/01/30 00:24:24;;;;;;;7.27;5.93;;;6.80;99.90;;;;;;5008184;28;20457;-71
2021/01/30 00:26:59;;;;;;;7.50;5.90;;;6.80;99.90;;;;;;5016210;28;20419;-72
2021/01/30 00:29:32;;;;;;;6.30;5.63;;;6.70;99.90;;;;;;5019275;28;20403;-72
2021/01/30 00:31:59;;;;;;;8.47;6.70;;;6.70;99.90;;;;;;5009452;28;20428;-71
2021/01/30 00:34:27;;;;;;;9.80;8.00;;;6.70;99.90;;;;;;4992349;28;21085;-72
2021/01/30 00:36:57;;;;;;;9.20;8.30;;;6.70;99.90;;;;;;4994148;28;20497;-72
2021/01/30 00:39:23;;;;;;;11.30;8.67;;;6.60;99.90;;;;;;4994523;28;20419;-72
2021/01/30 00:41:49;;;;;;;12.07;8.90;;;6.60;99.90;;;;;;4995298;28;20420;-71
2021/01/30 00:44:15;;;;;;;10.00;8.93;;;6.50;99.90;;;;;;4994887;28;20455;-71
2021/01/30 00:46:41;;;;;;;10.67;9.23;;;6.50;99.90;;;;;;4995844;28;20955;-72
2021/01/30 00:49:07;;;;;;;12.63;10.77;;;6.50;99.90;;;;;;4996006;28;20553;-72
2021/01/30 00:51:32;;;;;;;13.97;10.80;;;6.40;99.90;;;;;;4995423;28;20920;-71
2021/01/30 00:53:58;;;;;;;14.57;10.70;;;6.40;99.90;;;;;;4995765;28;20204;-71
2021/01/30 00:56:24;;;;;;;16.93;10.30;;;6.40;99.90;;;;;;4995908;28;20168;-72
2021/01/30 00:58:50;;;;;;;12.10;10.77;;;6.40;99.90;;;;;;4995495;28;20259;-71
2021/01/30 01:01:15;;;;;;;15.20;11.90;;;6.50;99.90;;;;;;4995696;28;20172;-71
2021/01/30 01:03:41;;;;;;;13.87;10.43;;;6.50;99.90;;;;;;4995083;28;20459;-71
2021/01/30 01:06:07;;;;;;;12.30;10.67;;;6.50;99.90;;;;;;4995882;28;20179;-71
2021/01/30 01:08:33;;;;;;;14.73;11.87;;;6.50;99.90;;;;;;4995953;28;20541;-71
2021/01/30 01:10:59;;;;;;;12.17;10.87;;;6.40;99.90;;;;;;4995592;28;20411;-71
2021/01/30 01:13:27;;;;;;;16.33;11.30;;;6.30;99.90;;;;;;4996817;28;20515;-71
2021/01/30 01:15:53;;;;;;;16.03;11.60;;;6.30;99.90;;;;;;4995784;28;20427;-71
2021/01/30 01:18:18;;;;;;;13.80;11.30;;;6.30;99.90;;;;;;4995067;28;20983;-72
2021/01/30 01:20:44;;;;;;;21.47;12.00;;;6.20;99.90;;;;;;4994853;28;20168;-71
2021/01/30 01:23:10;;;;;;;15.03;12.40;;;6.10;99.90;;;;;;4994175;28;20623;-71
2021/01/30 01:25:35;;;;;;;17.20;13.90;;;5.90;99.90;;;;;;4993834;28;20199;-71
2021/01/30 01:28:01;;;;;;;16.50;12.50;;;5.80;99.90;;;;;;4993283;28;20470;-71
2021/01/30 01:30:27;;;;;;;13.87;11.17;;;5.70;99.90;;;;;;4994870;28;20708;-71
2021/01/30 01:32:53;;;;;;;13.00;11.27;;;5.60;99.90;;;;;;4995266;28;20671;-72
2021/01/30 01:35:31;;;;;;;16.30;11.87;;;5.50;99.90;;;;;;4995268;28;20477;-71
2021/01/30 01:37:58;;;;;;;12.80;10.27;;;5.50;99.90;;;;;;4995709;28;20437;-71
2021/01/30 01:40:36;;;;;;;12.27;10.80;;;5.30;99.90;;;;;;4995051;28;20921;-71
2021/01/30 01:43:07;;;;;;;14.80;11.70;;;5.20;99.90;;;;;;4993649;28;20454;-72
2021/01/30 01:45:32;;;;;;;16.43;12.27;;;5.10;99.90;;;;;;4994178;28;20532;-72
2021/01/30 01:48:03;;;;;;;19.97;12.03;;;5.00;99.90;;;;;;4994573;28;20539;-70
2021/01/30 01:50:32;;;;;;;19.60;13.60;;;4.90;99.90;;;;;;4994412;28;20192;-71
2021/01/30 01:53:04;;;;;;;20.60;13.33;;;4.90;99.90;;;;;;4994781;28;20468;-71
2021/01/30 01:55:30;;;;;;;21.50;14.63;;;4.80;99.90;;;;;;4995844;28;20417;-72
2021/01/30 01:58:00;;;;;;;20.43;14.33;;;4.70;99.90;;;;;;4996235;28;20450;-71
2021/01/30 02:00:26;;;;;;;18.30;14.03;;;4.60;99.90;;;;;;4994381;28;20168;-71
2021/01/30 02:02:54;;;;;;;20.10;13.97;;;4.50;99.90;;;;;;4985183;28;21171;-71
2021/01/30 02:05:32;;;;;;;21.63;13.80;;;4.30;99.90;;;;;;4984416;28;20303;-71
2021/01/30 02:08:01;;;;;;;21.70;14.43;;;4.20;99.90;;;;;;4989143;28;20518;-71
2021/01/30 02:10:34;;;;;;;21.40;14.23;;;4.20;99.90;;;;;;4984185;28;20781;-71
2021/01/30 02:13:04;;;;;;;20.40;12.97;;;4.20;99.90;;;;;;4985945;28;20531;-72
2021/01/30 02:15:30;;;;;;;26.00;15.60;;;4.20;99.90;;;;;;4984386;28;20427;-71
2021/01/30 02:18:10;;;;;;;23.17;14.30;;;4.20;99.90;;;;;;4982554;28;20458;-71
2021/01/30 02:20:57;;;;;;;22.97;14.63;;;4.20;99.90;;;;;;4983909;28;20420;-72
2021/01/30 02:24:01;;;;;;;23.70;13.80;;;4.30;99.90;;;;;;4983113;28;20451;-71
2021/01/30 02:27:02;;;;;;;18.77;14.00;;;4.20;99.90;;;;;;4985370;28;20801;-71
2021/01/30 02:30:00;;;;;;;19.10;13.97;;;4.10;99.90;;;;;;4989604;28;20455;-71
2021/01/30 02:32:52;;;;;;;18.23;13.40;;;4.10;99.90;;;;;;4993824;28;20423;-71
2021/01/30 02:35:25;;;;;;;23.80;14.87;;;3.90;99.90;;;;;;4994271;28;20403;-71
2021/01/30 02:38:00;;;;;;;20.60;14.03;;;3.80;99.90;;;;;;4994861;28;20388;-71
2021/01/30 02:40:33;;;;;;;22.17;12.37;;;3.70;99.90;;;;;;4994241;28;20432;-71
2021/01/30 02:43:08;;;;;;;15.80;12.17;;;3.70;99.90;;;;;;4994369;28;20882;-71
2021/01/30 02:45:37;;;;;;;18.60;13.00;;;3.70;99.90;;;;;;4994824;28;20454;-71
2021/01/30 02:48:12;;;;;;;22.27;13.33;;;3.60;99.90;;;;;;4994137;28;20465;-71
2021/01/30 02:50:45;;;;;;;16.73;12.63;;;3.70;99.90;;;;;;4993706;28;20463;-71
2021/01/30 02:53:15;;;;;;;14.33;10.70;;;3.70;99.90;;;;;;4994086;28;20443;-71
2021/01/30 02:55:42;;;;;;;15.40;11.03;;;3.70;99.90;;;;;;4994669;28;20415;-71
2021/01/30 02:58:09;;;;;;;16.80;12.00;;;3.60;99.90;;;;;;5012092;28;20439;-70
2021/01/30 03:00:35;;;;;;;15.07;10.63;;;3.80;99.90;;;;;;5021901;28;20411;-71
2021/01/30 03:03:00;;;;;;;14.27;11.07;;;3.80;99.90;;;;;;5013371;28;20523;-71
2021/01/30 03:05:26;;;;;;;15.43;10.87;;;3.60;99.90;;;;;;4998465;28;20424;-71
2021/01/30 03:08:11;;;;;;;15.03;10.90;;;3.50;99.90;;;;;;4997896;28;20294;-71
2021/01/30 03:10:58;;;;;;;16.87;10.50;;;3.50;99.90;;;;;;4997186;28;20403;-71
2021/01/30 03:13:29;;;;;;;14.73;10.37;;;3.40;99.90;;;;;;4996022;28;20431;-71
2021/01/30 03:16:24;;;;;;;12.23;9.87;;;3.40;99.90;;;;;;4997175;28;20416;-72
2021/01/30 03:18:53;;;;;;;14.60;11.40;;;3.40;99.90;;;;;;4958662;28;20548;-72
2021/01/30 03:21:21;;;;;;;12.60;10.57;;;3.50;99.90;;;;;;4975665;28;20420;-72
2021/01/30 03:23:46;;;;;;;11.00;9.43;;;3.50;99.90;;;;;;4959874;28;20843;-71
2021/01/30 03:26:17;;;;;;;10.90;9.40;;;3.40;99.90;;;;;;4975817;28;20520;-71
2021/01/30 03:28:43;;;;;;;11.27;9.70;;;3.40;99.90;;;;;;4975823;28;20303;-71
2021/01/30 03:31:09;;;;;;;14.87;11.90;;;3.30;99.90;;;;;;4975292;28;20440;-72
2021/01/30 03:33:34;;;;;;;16.60;13.13;;;3.30;99.90;;;;;;4975949;28;20432;-71
2021/01/30 03:36:00;;;;;;;17.70;13.63;;;3.40;99.90;;;;;;4975377;28;20428;-71
2021/01/30 03:38:25;;;;;;;21.33;16.13;;;3.40;99.90;;;;;;4975427;28;20185;-71
2021/01/30 03:40:51;;;;;;;21.60;16.20;;;3.30;99.90;;;;;;4975395;28;20258;-71
2021/01/30 03:43:16;;;;;;;23.77;16.80;;;3.40;99.90;;;;;;4975182;28;20205;-71
2021/01/30 03:45:42;;;;;;;25.23;17.97;;;3.40;99.90;;;;;;4974967;28;20181;-71
2021/01/30 03:48:08;;;;;;;22.97;15.37;;;3.50;99.90;;;;;;4975424;28;20215;-71
2021/01/30 03:50:34;;;;;;;20.67;16.37;;;3.60;99.90;;;;;;4975912;28;20178;-71
2021/01/30 03:53:01;;;;;;;23.10;16.10;;;3.50;99.90;;;;;;4975775;28;20622;-72
2021/01/30 03:55:26;;;;;;;22.57;15.93;;;3.40;99.90;;;;;;4984650;28;20471;-71
2021/01/30 03:57:52;;;;;;;23.73;16.70;;;3.40;99.90;;;;;;4996647;28;20431;-71
2021/01/30 04:00:22;;;;;;;20.37;14.70;;;3.40;99.90;;;;;;4997016;28;20185;-71
2021/01/30 04:02:48;;;;;;;21.20;13.53;;;3.30;99.90;;;;;;4996557;28;20213;-71
2021/01/30 04:05:23;;;;;;;18.13;11.93;;;3.30;99.90;;;;;;4997164;28;20441;-71
2021/01/30 04:07:50;;;;;;;17.60;12.17;;;3.40;99.90;;;;;;4995486;28;20459;-72
2021/01/30 04:10:20;;;;;;;14.00;10.20;;;3.40;99.90;;;;;;4995071;28;20430;-71
2021/01/30 04:12:45;;;;;;;14.73;11.00;;;3.40;99.90;;;;;;4976876;28;20459;-72
2021/01/30 04:15:16;;;;;;;13.70;10.27;;;3.20;99.90;;;;;;4977491;28;20412;-71
2021/01/30 04:17:41;;;;;;;15.00;10.27;;;3.30;99.90;;;;;;4977487;28;20189;-71
2021/01/30 04:20:08;;;;;;;16.70;11.23;;;3.40;99.90;;;;;;4996097;28;20440;-71
2021/01/30 04:22:33;;;;;;;17.33;11.73;;;3.50;99.90;;;;;;4996228;28;20669;-71
2021/01/30 04:24:59;;;;;;;19.23;14.20;;;3.60;99.90;;;;;;4996083;28;20447;-72
2021/01/30 04:27:25;;;;;;;22.67;14.63;;;3.50;99.90;;;;;;4996398;28;20246;-71
2021/01/30 04:29:50;;;;;;;22.23;15.23;;;3.50;99.90;;;;;;4995830;28;20263;-71
2021/01/30 04:32:16;;;;;;;23.47;14.93;;;3.50;99.90;;;;;;4997552;28;20207;-71
2021/01/30 04:34:41;;;;;;;22.47;16.77;;;3.50;99.90;;;;;;4999472;28;20181;-71
2021/01/30 04:37:07;;;;;;;21.50;15.60;;;3.60;99.90;;;;;;4996800;28;20173;-72
2021/01/30 04:39:33;;;;;;;19.50;14.03;;;3.70;99.90;;;;;;4995373;28;20418;-71
2021/01/30 04:42:05;;;;;;;18.00;13.93;;;3.70;99.90;;;;;;4995972;28;20180;-72
2021/01/30 04:45:13;;;;;;;16.50;13.47;;;3.70;99.90;;;;;;4996079;28;20165;-72
2021/01/30 04:47:50;;;;;;;20.90;13.00;;;3.70;99.90;;;;;;4991804;28;20964;-71
2021/01/30 04:50:38;;;;;;;15.90;11.33;;;3.70;99.90;;;;;;4995491;28;20432;-71
2021/01/30 04:53:16;;;;;;;17.23;12.50;;;3.60;99.90;;;;;;4995781;28;20454;-72
2021/01/30 04:55:56;;;;;;;18.97;12.47;;;3.60;99.90;;;;;;4996452;28;20806;-71
2021/01/30 04:59:02;;;;;;;17.77;12.30;;;3.60;99.90;;;;;;4998565;28;20477;-71
2021/01/30 05:01:54;;;;;;;16.97;12.80;;;3.40;99.90;;;;;;5007262;28;20426;-71
2021/01/30 05:04:31;;;;;;;19.13;12.93;;;3.10;99.90;;;;;;5011231;28;20427;-71
2021/01/30 05:07:08;;;;;;;16.97;12.03;;;2.80;99.90;;;;;;4995787;28;20407;-71
2021/01/30 05:09:43;;;;;;;16.73;13.10;;;2.70;99.90;;;;;;4995547;28;20399;-71
2021/01/30 05:12:21;;;;;;;19.03;12.30;;;2.70;99.90;;;;;;4994838;28;20807;-71
2021/01/30 05:15:23;;;;;;;21.63;14.70;;;2.70;99.90;;;;;;4995507;28;20399;-71
2021/01/30 05:17:54;;;;;;;19.73;14.20;;;2.80;99.90;;;;;;4995450;28;20410;-71
2021/01/30 05:20:21;;;;;;;20.23;13.90;;;2.80;99.90;;;;;;4994993;28;20408;-71
2021/01/30 05:22:48;;;;;;;18.53;13.07;;;2.70;99.90;;;;;;4994489;28;20463;-71
2021/01/30 05:25:21;;;;;;;20.77;15.17;;;2.80;99.90;;;;;;4995371;28;20412;-71
2021/01/30 05:28:05;;;;;;;18.67;13.90;;;2.90;99.90;;;;;;4996438;28;20582;-71
2021/01/30 05:31:03;;;;;;;18.80;13.83;;;3.00;99.90;;;;;;5016946;28;20411;-71
2021/01/30 05:33:47;;;;;;;19.40;14.70;;;2.90;99.90;;;;;;5018877;28;20439;-72
2021/01/30 05:36:21;;;;;;;23.07;15.33;;;3.00;99.90;;;;;;5002260;28;20437;-71
2021/01/30 05:38:52;;;;;;;22.57;15.47;;;3.10;99.90;;;;;;4995269;28;20416;-71
2021/01/30 05:41:43;;;;;;;25.50;17.50;;;3.10;99.90;;;;;;4995528;28;20408;-71
2021/01/30 05:44:16;;;;;;;24.83;17.90;;;3.10;99.90;;;;;;4995868;28;20416;-71
2021/01/30 05:46:43;;;;;;;25.93;18.40;;;2.90;99.90;;;;;;4995546;28;20504;-71
2021/01/30 05:49:16;;;;;;;28.60;19.83;;;2.90;99.90;;;;;;4995432;28;20786;-71
2021/01/30 05:51:50;;;;;;;30.53;20.63;;;2.70;99.90;;;;;;4994912;28;20422;-71
2021/01/30 05:54:15;;;;;;;33.10;21.13;;;2.50;99.90;;;;;;4993489;28;20461;-71
2021/01/30 05:56:43;;;;;;;36.60;22.87;;;2.60;99.90;;;;;;4995054;28;20450;-71
2021/01/30 05:59:20;;;;;;;34.80;21.70;;;2.60;99.90;;;;;;4994996;28;20192;-72
2021/01/30 06:01:45;;;;;;;38.73;22.83;;;2.70;99.90;;;;;;4994437;28;20461;-71
2021/01/30 06:04:11;;;;;;;37.03;24.60;;;2.60;99.90;;;;;;4994843;28;20792;-71
2021/01/30 06:06:53;;;;;;;35.90;21.93;;;2.70;99.90;;;;;;4994412;28;20223;-72
2021/01/30 06:09:34;;;;;;;37.27;23.13;;;2.80;99.90;;;;;;4995068;28;20847;-71
2021/01/30 06:12:02;;;;;;;34.17;21.13;;;3.00;99.90;;;;;;4994345;28;20415;-71
2021/01/30 06:14:38;;;;;;;31.20;20.50;;;3.00;99.90;;;;;;4994636;28;20842;-71
2021/01/30 06:17:27;;;;;;;27.67;19.50;;;3.10;99.90;;;;;;4994150;28;20466;-71
2021/01/30 06:20:15;;;;;;;29.53;18.50;;;2.90;99.90;;;;;;4994726;28;20475;-72
2021/01/30 06:22:41;;;;;;;26.50;18.10;;;2.70;99.90;;;;;;4993981;28;20423;-71
2021/01/30 06:25:29;;;;;;;25.73;17.10;;;2.60;99.90;;;;;;4995064;28;20461;-71
2021/01/30 06:28:04;;;;;;;25.97;17.80;;;2.70;99.90;;;;;;4994466;28;20208;-72
2021/01/30 06:30:37;;;;;;;27.63;18.80;;;2.50;99.90;;;;;;4994533;28;20419;-71
2021/01/30 06:33:17;;;;;;;25.23;16.90;;;2.60;99.90;;;;;;4997477;28;20915;-71
2021/01/30 06:35:42;;;;;;;25.30;16.90;;;2.60;99.90;;;;;;4998284;28;20751;-71
2021/01/30 06:38:31;;;;;;;24.57;16.20;;;2.60;99.90;;;;;;4998272;28;20489;-71
2021/01/30 06:41:01;;;;;;;24.30;15.67;;;2.70;99.90;;;;;;4998089;28;20227;-72
2021/01/30 06:43:29;;;;;;;22.13;15.00;;;2.80;99.90;;;;;;4997668;28;20451;-72
2021/01/30 06:46:10;;;;;;;18.50;14.70;;;2.80;99.90;;;;;;4997908;28;20832;-71
2021/01/30 06:48:47;;;;;;;20.77;14.57;;;2.90;99.90;;;;;;4998091;28;20467;-71
2021/01/30 06:51:27;;;;;;;20.60;15.10;;;3.00;99.90;;;;;;4997706;28;20399;-71
2021/01/30 06:53:53;;;;;;;20.03;14.07;;;2.90;99.90;;;;;;4997939;28;20501;-70
2021/01/30 06:56:26;;;;;;;19.13;13.73;;;2.90;99.90;;;;;;4997898;28;20439;-71
2021/01/30 06:59:02;;;;;;;19.60;14.47;;;2.90;99.90;;;;;;4998454;28;20411;-71
2021/01/30 07:01:42;;;;;;;22.00;15.13;;;2.70;99.90;;;;;;4997602;28;20438;-71
2021/01/30 07:04:44;;;;;;;17.83;13.37;;;2.70;99.90;;;;;;4997456;28;20525;-71
2021/01/30 07:07:18;;;;;;;18.73;14.27;;;2.70;99.90;;;;;;4998655;28;20765;-70
2021/01/30 07:10:02;;;;;;;16.97;12.70;;;2.90;99.90;;;;;;4999243;28;20411;-71
2021/01/30 07:12:46;;;;;;;18.47;14.73;;;2.90;99.90;;;;;;4999635;28;20434;-70
2021/01/30 07:15:28;;;;;;;16.43;13.03;;;2.80;99.90;;;;;;4997229;28;20961;-73
2021/01/30 07:18:21;;;;;;;16.20;12.80;;;2.80;99.90;;;;;;4997459;28;20720;-72
2021/01/30 07:21:18;;;;;;;17.97;13.30;;;2.80;99.90;;;;;;4997441;28;20457;-71
2021/01/30 07:23:49;;;;;;;15.80;12.43;;;2.90;99.90;;;;;;4977773;28;20455;-71
2021/01/30 07:26:38;;;;;;;16.90;12.90;;;2.90;99.90;;;;;;4978251;28;20502;-71
2021/01/30 07:29:18;;;;;;;15.73;12.33;;;2.80;99.90;;;;;;4978010;28;21007;-71
2021/01/30 07:31:52;;;;;;;14.63;12.00;;;2.90;99.90;;;;;;4981519;28;20517;-71
2021/01/30 07:34:30;;;;;;;14.80;11.23;;;2.90;99.90;;;;;;4997040;28;20415;-71
2021/01/30 07:37:09;;;;;;;12.80;10.87;;;3.00;99.90;;;;;;4997533;28;20415;-71
2021/01/30 07:39:55;;;;;;;12.47;10.87;;;2.90;99.90;;;;;;4997478;28;20478;-71
2021/01/30 07:43:04;;;;;;;12.10;9.87;;;2.80;99.90;;;;;;4995996;28;20444;-71
2021/01/30 07:45:34;;;;;;;11.90;9.73;;;2.70;99.90;;;;;;4975534;28;20439;-71
2021/01/30 07:48:11;;;;;;;11.67;10.13;;;2.80;99.90;;;;;;4975798;28;20467;-71
2021/01/30 07:50:41;;;;;;;10.70;9.60;;;2.70;99.90;;;;;;4975492;28;20419;-71
2021/01/30 07:53:16;;;;;;;15.07;10.70;;;2.60;99.90;;;;;;4975635;28;20563;-71
2021/01/30 07:56:31;;;;;;;9.50;8.53;;;2.50;99.90;;;;;;4975664;28;20412;-71
2021/01/30 07:59:28;;;;;;;12.60;9.33;;;2.60;99.90;;;;;;4937225;29;20427;-71
2021/01/30 08:01:59;;;;;;;12.33;10.17;;;2.50;99.90;;;;;;4916342;29;20493;-71
2021/01/30 08:05:08;;;;;;;10.50;9.50;;;2.50;99.90;;;;;;4935466;29;20442;-72
2021/01/30 08:07:56;;;;;;;10.97;8.10;;;2.70;99.90;;;;;;4936822;29;20968;-72
2021/01/30 08:10:40;;;;;;;10.83;9.00;;;2.60;99.90;;;;;;4936488;29;20566;-71
2021/01/30 08:13:25;;;;;;;9.40;8.43;;;2.50;99.90;;;;;;4935500;29;20457;-71
2021/01/30 08:15:59;;;;;;;11.77;9.77;;;2.50;99.90;;;;;;4935760;29;20491;-71
2021/01/30 08:18:40;;;;;;;9.60;8.60;;;2.50;99.90;;;;;;4936545;29;20466;-71
2021/01/30 08:21:13;;;;;;;9.97;8.63;;;2.60;99.90;;;;;;4946400;29;20772;-71
2021/01/30 08:23:51;;;;;;;9.93;8.60;;;2.70;99.90;;;;;;4955182;28;20520;-71
2021/01/30 08:26:22;;;;;;;11.73;9.13;;;2.70;99.90;;;;;;4967370;29;20429;-71
2021/01/30 08:29:11;;;;;;;9.80;8.27;;;2.80;99.90;;;;;;4960529;28;20511;-71
2021/01/30 08:31:42;;;;;;;11.10;8.40;;;2.80;99.90;;;;;;4980904;28;20461;-70
2021/01/30 08:34:19;;;;;;;9.43;8.43;;;2.90;99.90;;;;;;5008880;28;20470;-71
2021/01/30 08:36:50;;;;;;;9.40;8.17;;;3.00;99.90;;;;;;4985401;28;20467;-72
2021/01/30 08:39:19;;;;;;;8.97;8.07;;;3.10;99.90;;;;;;4985939;28;20419;-72
2021/01/30 08:41:48;;;;;;;8.43;7.60;;;3.10;99.90;;;;;;4978068;28;20416;-72
2021/01/30 08:44:42;;;;;;;9.47;8.50;;;3.10;99.90;;;;;;4991637;28;20443;-72
2021/01/30 08:47:29;;;;;;;8.53;7.63;;;3.00;99.90;;;;;;4988943;28;20424;-72
2021/01/30 08:50:07;;;;;;;9.10;8.10;;;2.90;99.90;;;;;;4987418;28;20463;-72
2021/01/30 08:52:35;;;;;;;8.87;7.73;;;2.80;99.90;;;;;;4984782;28;20443;-72
2021/01/30 08:55:29;;;;;;;8.87;7.97;;;2.80;99.90;;;;;;4992038;28;20474;-72
2021/01/30 08:57:54;;;;;;;8.73;7.90;;;2.90;99.90;;;;;;4989262;28;20423;-72
2021/01/30 09:00:26;;;;;;;9.10;8.20;;;2.80;99.90;;;;;;4977386;28;20506;-72
2021/01/30 09:03:03;;;;;;;10.80;8.40;;;2.80;99.90;;;;;;4975763;28;20207;-72
2021/01/30 09:05:32;;;;;;;10.00;8.50;;;2.90;99.90;;;;;;4984577;28;20686;-72
2021/01/30 09:08:18;;;;;;;11.33;9.03;;;2.90;99.90;;;;;;4993948;28;20494;-72
2021/01/30 09:10:44;;;;;;;10.00;8.57;;;2.90;99.90;;;;;;4991589;28;20518;-72
2021/01/30 09:13:11;;;;;;;10.23;8.77;;;2.80;99.90;;;;;;4992643;28;20598;-72
2021/01/30 09:15:42;;;;;;;10.37;8.37;;;2.70;99.90;;;;;;4994897;28;20184;-72
2021/01/30 09:18:26;;;;;;;9.73;8.80;;;2.70;99.90;;;;;;4995824;28;20423;-72
2021/01/30 09:21:14;;;;;;;9.30;8.40;;;2.80;99.90;;;;;;4995050;28;20423;-72
2021/01/30 09:24:16;;;;;;;10.00;8.73;;;2.60;99.90;;;;;;4995294;28;20502;-72
2021/01/30 09:27:04;;;;;;;10.27;8.13;;;2.70;99.90;;;;;;4995148;28;20411;-72
2021/01/30 09:29:38;;;;;;;9.13;8.23;;;2.70;99.90;;;;;;4988057;28;20426;-72
2021/01/30 09:32:04;;;;;;;9.73;7.90;;;2.60;99.90;;;;;;4975683;28;20893;-72
2021/01/30 09:34:33;;;;;;;8.40;7.60;;;2.70;99.90;;;;;;4976250;28;20401;-72
2021/01/30 09:36:59;;;;;;;8.23;7.37;;;2.80;99.90;;;;;;4980017;28;20463;-72
2021/01/30 09:39:31;;;;;;;8.50;7.70;;;2.90;99.90;;;;;;4995543;28;20739;-72
2021/01/30 09:42:13;;;;;;;8.57;7.83;;;2.90;99.90;;;;;;4995169;28;20469;-72
2021/01/30 09:44:39;;;;;;;7.30;6.60;;;3.00;99.90;;;;;;4996417;28;20419;-72
2021/01/30 09:47:11;;;;;;;7.37;6.60;;;3.10;99.90;;;;;;4997272;28;20423;-72
2021/01/30 09:49:42;;;;;;;8.30;6.97;;;3.20;99.90;;;;;;4994419;28;20306;-72
2021/01/30 09:52:08;;;;;;;7.67;6.87;;;3.30;99.90;;;;;;4995579;28;20424;-72
2021/01/30 09:54:36;;;;;;;7.87;7.17;;;3.40;99.90;;;;;;4995369;28;20395;-72
2021/01/30 09:57:15;;;;;;;7.63;6.93;;;3.50;99.90;;;;;;4995075;28;20901;-72
2021/01/30 09:59:41;;;;;;;7.47;6.80;;;3.40;99.90;;;;;;4994397;28;20416;-71
2021/01/30 10:02:18;;;;;;;8.00;7.03;;;3.40;99.90;;;;;;4993848;28;20457;-72
2021/01/30 10:04:45;;;;;;;7.10;6.50;;;3.30;99.90;;;;;;4994281;28;20180;-71
2021/01/30 10:07:13;;;;;;;7.07;6.47;;;3.20;99.90;;;;;;4994007;28;20813;-73
2021/01/30 10:09:47;;;;;;;6.80;6.20;;;3.20;99.90;;;;;;4994257;28;20431;-71
2021/01/30 10:12:16;;;;;;;6.17;5.67;;;3.30;99.90;;;;;;4989867;28;20439;-71
2021/01/30 10:14:46;;;;;;;7.10;6.43;;;3.40;99.90;;;;;;4984843;28;20437;-72
2021/01/30 10:17:30;;;;;;;7.40;6.70;;;3.50;99.90;;;;;;4975769;28;20397;-71
2021/01/30 10:20:05;;;;;;;7.77;6.80;;;3.40;99.90;;;;;;4986974;28;20425;-71
2021/01/30 10:22:40;;;;;;;7.27;6.60;;;3.50;99.90;;;;;;4994370;28;20784;-71
2021/01/30 10:25:22;;;;;;;6.20;5.60;;;3.40;99.90;;;;;;4995811;28;20967;-71
2021/01/30 10:27:48;;;;;;;7.63;6.93;;;3.40;99.90;;;;;;5002359;28;20459;-72
2021/01/30 10:30:17;;;;;;;7.07;6.37;;;3.50;99.90;;;;;;5005559;28;20451;-71
2021/01/30 10:32:56;;;;;;;6.67;6.07;;;3.70;99.90;;;;;;5004941;28;20222;-71
2021/01/30 10:35:30;;;;;;;6.60;5.90;;;3.80;99.90;;;;;;4995820;28;20502;-72
2021/01/30 10:38:08;;;;;;;7.03;6.40;;;3.90;99.90;;;;;;4994708;28;20465;-71
2021/01/30 10:40:43;;;;;;;6.13;5.63;;;3.90;99.90;;;;;;4994543;28;20403;-70
2021/01/30 10:43:15;;;;;;;7.07;6.37;;;3.90;99.90;;;;;;4993673;28;20446;-71
2021/01/30 10:45:44;;;;;;;6.70;6.20;;;3.60;99.90;;;;;;4995167;28;20408;-71
2021/01/30 10:48:14;;;;;;;6.80;6.20;;;3.60;99.90;;;;;;4994539;28;20478;-71
2021/01/30 10:50:41;;;;;;;6.77;6.17;;;3.50;99.90;;;;;;4993684;28;20414;-71
2021/01/30 10:53:37;;;;;;;6.67;6.07;;;3.50;99.90;;;;;;4983169;28;20781;-71
2021/01/30 10:56:24;;;;;;;6.57;5.97;;;3.50;99.90;;;;;;4978334;28;20436;-72
2021/01/30 10:58:52;;;;;;;6.80;6.20;;;3.50;99.90;;;;;;4973350;28;20546;-71
2021/01/30 11:01:17;;;;;;;6.27;5.70;;;3.40;99.90;;;;;;4979819;28;20443;-72
2021/01/30 11:04:03;;;;;;;6.27;5.70;;;3.40;99.90;;;;;;4986488;28;20467;-72
2021/01/30 11:06:33;;;;;;;6.47;5.87;;;3.50;99.90;;;;;;4992910;28;20567;-72
2021/01/30 11:09:27;;;;;;;6.07;5.57;;;3.60;99.90;;;;;;4992594;28;20462;-71
2021/01/30 11:12:17;;;;;;;5.20;4.70;;;3.50;99.90;;;;;;4991347;28;20410;-71
2021/01/30 11:14:43;;;;;;;6.07;5.43;;;3.50;99.90;;;;;;4991722;28;20448;-71
2021/01/30 11:17:25;;;;;;;5.87;5.33;;;3.70;99.90;;;;;;4985774;28;20535;-71
2021/01/30 11:19:50;;;;;;;5.93;5.37;;;3.80;99.90;;;;;;4992942;28;20448;-71
2021/01/30 11:22:22;;;;;;;5.93;5.43;;;3.80;99.90;;;;;;4995699;28;20463;-71
2021/01/30 11:25:12;;;;;;;5.57;4.70;;;3.90;99.90;;;;;;4995232;28;20177;-71
2021/01/30 11:27:49;;;;;;;5.70;5.17;;;3.60;99.90;;;;;;4994717;28;20459;-71
2021/01/30 11:30:21;;;;;;;5.77;5.27;;;3.60;99.90;;;;;;4982356;28;20919;-71
2021/01/30 11:32:58;;;;;;;6.00;5.40;;;3.70;99.90;;;;;;4996769;28;20482;-71
2021/01/30 11:35:34;;;;;;;4.60;4.20;;;3.80;99.90;;;;;;5001134;28;20506;-71
2021/01/30 11:38:17;;;;;;;5.43;4.83;;;3.70;99.90;;;;;;4996754;28;20419;-71
2021/01/30 11:40:44;;;;;;;5.60;5.10;;;3.70;99.90;;;;;;4996842;28;20432;-71
2021/01/30 11:43:09;;;;;;;5.20;4.70;;;3.80;99.90;;;;;;4996543;28;20494;-71
2021/01/30 11:45:35;;;;;;;5.50;4.80;;;3.80;99.90;;;;;;4981793;28;20421;-71
2021/01/30 11:48:01;;;;;;;5.37;4.87;;;3.80;99.90;;;;;;4995491;28;20247;-72
2021/01/30 11:50:26;;;;;;;4.90;4.50;;;3.90;99.90;;;;;;4996768;28;20181;-72
2021/01/30 11:52:52;;;;;;;5.83;4.53;;;3.90;99.90;;;;;;4995932;28;20675;-72
2021/01/30 11:55:18;;;;;;;4.67;4.27;;;4.00;99.90;;;;;;4996616;28;20185;-71
2021/01/30 11:57:43;;;;;;;5.63;4.97;;;4.00;99.90;;;;;;4996869;28;20186;-71
2021/01/30 12:00:14;;;;;;;5.20;4.70;;;4.10;99.90;;;;;;4997371;28;20827;-71
2021/01/30 12:02:41;;;;;;;4.50;4.10;;;4.10;99.90;;;;;;4997308;28;20191;-71
2021/01/30 12:05:11;;;;;;;5.20;4.80;;;4.10;99.90;;;;;;4998014;28;20464;-72
2021/01/30 12:07:37;;;;;;;4.37;3.93;;;4.10;99.90;;;;;;4997854;28;20466;-72
2021/01/30 12:10:04;;;;;;;4.60;4.20;;;4.10;99.90;;;;;;4995041;28;20421;-71
2021/01/30 12:12:29;;;;;;;5.27;4.77;;;4.20;99.90;;;;;;4984111;28;20215;-72
2021/01/30 12:14:55;;;;;;;4.83;4.33;;;4.20;99.90;;;;;;4980723;28;20841;-72
2021/01/30 12:17:36;;;;;;;4.40;4.10;;;4.10;99.90;;;;;;4989926;28;20525;-72
2021/01/30 12:20:07;;;;;;;6.20;4.90;;;4.10;99.90;;;;;;4995136;28;20176;-72
2021/01/30 12:22:34;;;;;;;4.93;4.50;;;4.10;99.90;;;;;;4995928;28;20962;-71
2021/01/30 12:25:00;;;;;;;5.20;4.80;;;4.10;99.90;;;;;;5002490;28;20473;-71
2021/01/30 12:27:27;;;;;;;4.93;4.53;;;4.30;99.90;;;;;;4998353;28;20852;-72
2021/01/30 12:29:52;;;;;;;4.50;4.20;;;4.40;99.90;;;;;;4995645;28;20436;-70
2021/01/30 12:32:18;;;;;;;5.20;4.70;;;4.40;99.90;;;;;;4995493;28;20509;-71
2021/01/30 12:34:44;;;;;;;4.27;3.87;;;4.40;99.90;;;;;;5002332;28;20167;-72
2021/01/30 12:37:09;;;;;;;4.80;3.93;;;4.60;99.90;;;;;;5006283;28;20180;-71
2021/01/30 12:39:35;;;;;;;4.00;3.60;;;4.60;99.90;;;;;;4995029;28;20207;-72
2021/01/30 12:42:00;;;;;;;4.47;4.03;;;4.50;99.90;;;;;;4992412;28;20281;-71
2021/01/30 12:44:26;;;;;;;4.00;3.70;;;4.40;99.90;;;;;;4983358;28;20263;-71
2021/01/30 12:46:52;;;;;;;4.67;3.53;;;4.40;99.90;;;;;;4986026;28;20206;-72
2021/01/30 12:49:18;;;;;;;5.13;4.13;;;4.30;99.90;;;;;;4995236;28;20255;-72
2021/01/30 12:51:44;;;;;;;4.70;3.90;;;4.30;99.90;;;;;;4995185;28;20487;-72
2021/01/30 12:54:10;;;;;;;4.53;3.47;;;4.40;99.90;;;;;;4995322;28;20449;-71
2021/01/30 12:56:36;;;;;;;3.30;3.00;;;4.30;99.90;;;;;;4995873;28;20968;-71
2021/01/30 12:59:03;;;;;;;4.07;3.47;;;4.30;99.90;;;;;;5003261;28;20541;-72
2021/01/30 13:01:30;;;;;;;3.70;3.37;;;4.20;99.90;;;;;;4993773;28;20450;-72
2021/01/30 13:03:55;;;;;;;4.10;3.43;;;4.30;99.90;;;;;;4994674;28;20799;-72
2021/01/30 13:06:21;;;;;;;2.87;2.70;;;4.20;99.90;;;;;;4994940;28;20420;-72
2021/01/30 13:08:47;;;;;;;3.40;3.10;;;4.20;99.90;;;;;;4994957;28;20203;-71
2021/01/30 13:11:13;;;;;;;3.30;3.00;;;4.20;99.90;;;;;;4993520;28;20233;-70
2021/01/30 13:13:40;;;;;;;4.10;3.43;;;4.20;99.90;;;;;;4993298;28;20804;-72
2021/01/30 13:16:06;;;;;;;3.30;3.00;;;4.20;99.90;;;;;;4989710;28;20185;-71
2021/01/30 13:18:32;;;;;;;2.90;2.60;;;4.30;99.90;;;;;;4995065;28;20403;-73